Koushinmaru No.5 — JL6695 — position and weather

sailwx.info

Track history (hours):
 
Tides and Currents Weather Stations Pressure Air Temp Water Temp Dewpoint Dewpoint Depression Visibility Wind Speed Wind Dir Waves Ship Positions

Koushinmaru No.5

Last reported at 2015-Jul-31 05:09 UTC. Time now 2015-Jul-31 23:29 UTC.
Position N 35°07' E 139°42'.

Length 75 m; draft 4.2 m.

Type: Cargo ship. MMSI: 431301703.

Date/timePositionNaut miles runAvg speedWind from/ knotsBaromVisibWave heightAir tempDewpointWater temp
2015-Jul-31 05:09N 35°07' E 139°42'611.0
2015-Jul-31 04:34N 35°12' E 139°46'1010.0
2015-Jul-31 03:34N 35°22' E 139°42'8 7.6
2015-Jul-31 02:33N 35°22' E 139°52'2 0.4
2015-Jul-30 22:34N 35°22' E 139°53'0 0.0
2015-Jul-30 21:33N 35°22' E 139°53'0 0.0
2015-Jul-30 20:34N 35°22' E 139°53'0 0.0
2015-Jul-30 19:33N 35°22' E 139°53'0 0.3
2015-Jul-30 18:34N 35°22' E 139°54'0 0.1
2015-Jul-30 17:33N 35°22' E 139°54'0 0.0
2015-Jul-30 16:33N 35°22' E 139°54'0 0.0
2015-Jul-30 15:34N 35°22' E 139°54'0 0.0
2015-Jul-30 14:33N 35°22' E 139°54'0 0.0
2015-Jul-30 13:33N 35°22' E 139°54'0 0.0
2015-Jul-30 12:33N 35°22' E 139°54'4 3.7
2015-Jul-30 11:34N 35°24' E 139°50'1010.2
2015-Jul-30 10:33N 35°33' E 139°54'8 7.7
2015-Jul-30 09:33N 35°41' E 139°57'0 0.0
2015-Jul-30 08:34N 35°41' E 139°57'0 0.0
2015-Jul-30 07:33N 35°41' E 139°57'0 0.0
2015-Jul-30 06:33N 35°41' E 139°57'4 3.5
2015-Jul-30 05:33N 35°37' E 139°59'0 0.0
2015-Jul-30 04:33N 35°37' E 139°59'0 0.0
2015-Jul-30 03:33N 35°37' E 139°59'4 4.4
2015-Jul-30 02:33N 35°33' E 139°56'1010.1
2015-Jul-30 01:33N 35°25' E 139°50'3 0.2
2015-Jul-29 09:11N 35°22' E 139°51'0 0.0
2015-Jul-29 08:33N 35°22' E 139°51'2 1.8
2015-Jul-29 07:33N 35°22' E 139°49'3 2.9
2015-Jul-29 06:33N 35°25' E 139°49'1110.7
2015-Jul-29 05:34N 35°36' E 139°50'1 0.2
2015-Jul-28 22:34N 35°37' E 139°50'2 2.3
2015-Jul-28 21:33N 35°35' E 139°51'4 4.5
2015-Jul-28 20:33N 35°31' E 139°52'10 9.5
2015-Jul-28 19:33N 35°23' E 139°46'9 9.0
2015-Jul-28 18:33N 35°14' E 139°47'1010.0
2015-Jul-28 17:33N 35°04' E 139°43'1110.8
2015-Jul-28 16:30N 34°58' E 139°32'  
Track history (hours):
 
Tides and Currents Weather Stations Pressure Air Temp Water Temp Dewpoint Dewpoint Depression Visibility Wind Speed Wind Dir Waves Ship Positions

Koushinmaru No.5

Last reported at 2015-Jul-31 05:09 UTC. Time now 2015-Jul-31 23:29 UTC.
Position N 35°07' E 139°42'.

Length 75 m; draft 4.2 m.

Type: Cargo ship. MMSI: 431301703.

Date/timePositionNaut miles runAvg speedWind from/ knotsBaromVisibWave heightAir tempDewpointWater temp
2015-Jul-31 05:09N 35°07' E 139°42'611.0
2015-Jul-31 04:34N 35°12' E 139°46'1010.0
2015-Jul-31 03:34N 35°22' E 139°42'8 7.6
2015-Jul-31 02:33N 35°22' E 139°52'2 0.4
2015-Jul-30 22:34N 35°22' E 139°53'0 0.0
2015-Jul-30 21:33N 35°22' E 139°53'0 0.0
2015-Jul-30 20:34N 35°22' E 139°53'0 0.0
2015-Jul-30 19:33N 35°22' E 139°53'0 0.3
2015-Jul-30 18:34N 35°22' E 139°54'0 0.1
2015-Jul-30 17:33N 35°22' E 139°54'0 0.0
2015-Jul-30 16:33N 35°22' E 139°54'0 0.0
2015-Jul-30 15:34N 35°22' E 139°54'0 0.0
2015-Jul-30 14:33N 35°22' E 139°54'0 0.0
2015-Jul-30 13:33N 35°22' E 139°54'0 0.0
2015-Jul-30 12:33N 35°22' E 139°54'4 3.7
2015-Jul-30 11:34N 35°24' E 139°50'1010.2
2015-Jul-30 10:33N 35°33' E 139°54'8 7.7
2015-Jul-30 09:33N 35°41' E 139°57'0 0.0
2015-Jul-30 08:34N 35°41' E 139°57'0 0.0
2015-Jul-30 07:33N 35°41' E 139°57'0 0.0
2015-Jul-30 06:33N 35°41' E 139°57'4 3.5
2015-Jul-30 05:33N 35°37' E 139°59'0 0.0
2015-Jul-30 04:33N 35°37' E 139°59'0 0.0
2015-Jul-30 03:33N 35°37' E 139°59'4 4.4
2015-Jul-30 02:33N 35°33' E 139°56'1010.1
2015-Jul-30 01:33N 35°25' E 139°50'3 0.2
2015-Jul-29 09:11N 35°22' E 139°51'0 0.0
2015-Jul-29 08:33N 35°22' E 139°51'2 1.8
2015-Jul-29 07:33N 35°22' E 139°49'3 2.9
2015-Jul-29 06:33N 35°25' E 139°49'1110.7
2015-Jul-29 05:34N 35°36' E 139°50'1 0.2
2015-Jul-28 22:34N 35°37' E 139°50'2 2.3
2015-Jul-28 21:33N 35°35' E 139°51'4 4.5
2015-Jul-28 20:33N 35°31' E 139°52'10 9.5
2015-Jul-28 19:33N 35°23' E 139°46'9 9.0
2015-Jul-28 18:33N 35°14' E 139°47'1010.0
2015-Jul-28 17:33N 35°04' E 139°43'1110.8
2015-Jul-28 16:30N 34°58' E 139°32'  

Dump ship's entire track history